createdAt,value
2023-04-27T00:02:13.830Z,5.64
2023-04-27T00:04:41.970Z,5.64
2023-04-27T00:07:10.059Z,5.65
2023-04-27T00:09:38.392Z,5.64
2023-04-27T00:12:07.140Z,5.63
2023-04-27T00:14:34.865Z,5.63
2023-04-27T00:17:02.858Z,5.62
2023-04-27T00:19:30.700Z,5.61
2023-04-27T00:22:00.392Z,5.63
2023-04-27T00:24:28.959Z,5.64
2023-04-27T00:26:57.851Z,5.65
2023-04-27T00:29:25.777Z,5.64
2023-04-27T00:31:53.707Z,5.64
2023-04-27T00:34:21.766Z,5.62
2023-04-27T00:36:49.548Z,5.62
2023-04-27T00:39:17.959Z,5.61
2023-04-27T00:41:46.319Z,5.60
2023-04-27T00:44:14.072Z,5.60
2023-04-27T00:46:41.972Z,5.59
2023-04-27T00:49:09.722Z,5.58
2023-04-27T00:51:37.513Z,5.56
2023-04-27T00:54:06.269Z,5.54
2023-04-27T00:56:34.552Z,5.53
2023-04-27T00:59:02.337Z,5.52
2023-04-27T01:01:30.577Z,5.52
2023-04-27T01:03:58.657Z,5.51
2023-04-27T01:06:28.284Z,5.52
2023-04-27T01:08:56.681Z,5.52
2023-04-27T01:11:25.086Z,5.52
2023-04-27T01:13:54.887Z,5.52
2023-04-27T01:16:22.921Z,5.53
2023-04-27T01:18:50.769Z,5.54
2023-04-27T01:21:19.086Z,5.54
2023-04-27T01:23:47.486Z,5.53
2023-04-27T01:26:16.553Z,5.52
2023-04-27T01:28:44.460Z,5.52
2023-04-27T01:31:12.644Z,5.51
2023-04-27T01:33:41.446Z,5.52
2023-04-27T01:36:10.216Z,5.52
2023-04-27T01:38:38.107Z,5.51
2023-04-27T01:41:09.167Z,5.51
2023-04-27T01:43:37.416Z,5.50
2023-04-27T01:46:13.301Z,5.50
2023-04-27T01:48:41.908Z,5.49
2023-04-27T01:51:09.724Z,5.50
2023-04-27T01:53:37.492Z,5.49
2023-04-27T01:56:06.883Z,5.50
2023-04-27T01:58:35.126Z,5.48
2023-04-27T02:01:02.934Z,5.45
2023-04-27T02:03:30.985Z,5.43
2023-04-27T02:05:58.956Z,5.43
2023-04-27T02:08:26.863Z,5.43
2023-04-27T02:10:55.330Z,5.44
2023-04-27T02:13:23.614Z,5.45
2023-04-27T02:15:51.530Z,5.43
2023-04-27T02:18:20.285Z,5.44
2023-04-27T02:20:48.176Z,5.42
2023-04-27T02:23:16.004Z,5.43
2023-04-27T02:25:46.968Z,5.42
2023-04-27T02:28:15.728Z,5.41
2023-04-27T02:30:44.178Z,5.40
2023-04-27T02:33:11.989Z,5.40
2023-04-27T02:35:39.768Z,5.40
2023-04-27T02:38:07.559Z,5.40
2023-04-27T02:40:35.981Z,5.39
2023-04-27T02:43:04.322Z,5.37
2023-04-27T02:45:32.115Z,5.35
2023-04-27T02:47:59.975Z,5.35
2023-04-27T02:50:27.744Z,5.34
2023-04-27T02:52:56.467Z,5.33
2023-04-27T02:55:24.738Z,5.32
2023-04-27T02:57:52.506Z,5.32
2023-04-27T03:00:20.446Z,5.31
2023-04-27T03:02:48.317Z,5.30
2023-04-27T03:05:17.017Z,5.31
2023-04-27T03:07:45.175Z,5.29
2023-04-27T03:10:12.921Z,5.28
2023-04-27T03:12:40.755Z,5.27
2023-04-27T03:15:09.212Z,5.27
2023-04-27T03:17:36.975Z,5.26
2023-04-27T03:20:09.502Z,5.25
2023-04-27T03:22:37.308Z,5.26
2023-04-27T03:25:06.119Z,5.25
2023-04-27T03:27:33.906Z,5.25
2023-04-27T03:30:01.774Z,5.27
2023-04-27T03:32:29.534Z,5.28
2023-04-27T03:34:57.519Z,5.28
2023-04-27T03:37:25.280Z,5.29
2023-04-27T03:39:53.021Z,5.30
2023-04-27T03:42:20.831Z,5.30
2023-04-27T03:44:48.630Z,5.31
2023-04-27T03:47:16.421Z,5.32
2023-04-27T03:49:44.149Z,5.33
2023-04-27T03:52:11.969Z,5.33
2023-04-27T03:54:39.723Z,5.33
2023-04-27T03:57:07.826Z,5.35
2023-04-27T03:59:35.634Z,5.37
2023-04-27T04:02:05.590Z,5.38
2023-04-27T04:04:33.757Z,5.40
2023-04-27T04:07:01.767Z,5.42
2023-04-27T04:09:29.579Z,5.45
2023-04-27T04:11:58.029Z,5.50
2023-04-27T04:14:26.222Z,5.56
2023-04-27T04:16:54.606Z,5.62
2023-04-27T04:19:22.561Z,5.67
2023-04-27T04:21:50.791Z,5.75
2023-04-27T04:24:18.897Z,5.82
2023-04-27T04:26:47.334Z,5.88
2023-04-27T04:29:15.950Z,5.92
2023-04-27T04:31:44.559Z,5.99
2023-04-27T04:34:12.936Z,6.03
2023-04-27T04:36:40.689Z,6.09
2023-04-27T04:39:08.517Z,6.14
2023-04-27T04:41:36.708Z,6.19
2023-04-27T04:44:06.181Z,6.24
2023-04-27T04:46:34.012Z,6.30
2023-04-27T04:49:02.769Z,6.31
2023-04-27T04:51:30.862Z,6.31
2023-04-27T04:54:01.149Z,6.34
2023-04-27T04:56:30.471Z,6.37
2023-04-27T04:58:58.683Z,6.41
2023-04-27T05:01:26.681Z,6.45
2023-04-27T05:03:54.613Z,6.49
2023-04-27T05:06:22.576Z,6.54
2023-04-27T05:08:50.363Z,6.60
2023-04-27T05:11:18.915Z,6.64
2023-04-27T05:13:48.056Z,6.66
2023-04-27T05:16:16.409Z,6.67
2023-04-27T05:18:44.261Z,6.70
2023-04-27T05:21:17.666Z,6.76
2023-04-27T05:23:45.445Z,6.81
2023-04-27T05:26:18.395Z,6.81
2023-04-27T05:28:47.250Z,6.79
2023-04-27T05:31:15.074Z,6.74
2023-04-27T05:33:42.872Z,6.69
2023-04-27T05:36:11.112Z,6.62
2023-04-27T05:38:40.594Z,6.57
2023-04-27T05:41:09.018Z,6.55
2023-04-27T05:43:38.757Z,6.55
2023-04-27T05:46:06.807Z,6.54
2023-04-27T05:48:35.289Z,6.55
2023-04-27T05:51:04.188Z,6.57
2023-04-27T05:53:34.705Z,6.57
2023-04-27T05:56:04.523Z,6.60
2023-04-27T05:58:33.699Z,6.68
2023-04-27T06:01:03.482Z,6.75
2023-04-27T06:03:31.587Z,6.81
2023-04-27T06:06:01.281Z,6.90
2023-04-27T06:08:29.844Z,6.96
2023-04-27T06:10:57.990Z,7.00
2023-04-27T06:13:26.350Z,7.03
2023-04-27T06:15:54.608Z,7.06
2023-04-27T06:18:22.428Z,7.10
2023-04-27T06:20:50.625Z,7.11
2023-04-27T06:23:18.452Z,7.14
2023-04-27T06:25:46.297Z,7.14
2023-04-27T06:28:14.612Z,7.13
2023-04-27T06:30:42.921Z,7.17
2023-04-27T06:33:10.908Z,7.24
2023-04-27T06:35:38.873Z,7.32
2023-04-27T06:38:07.695Z,7.45
2023-04-27T06:40:37.101Z,7.58
2023-04-27T06:43:05.410Z,7.75
2023-04-27T06:45:33.654Z,7.93
2023-04-27T06:48:01.589Z,8.12
2023-04-27T06:50:30.641Z,8.33
2023-04-27T06:52:58.430Z,8.55
2023-04-27T06:55:26.489Z,8.76
2023-04-27T06:57:54.783Z,8.94
2023-04-27T07:00:23.184Z,9.16
2023-04-27T07:02:51.756Z,9.35
2023-04-27T07:05:20.138Z,9.53
2023-04-27T07:07:47.932Z,9.69
2023-04-27T07:10:16.048Z,9.82
2023-04-27T07:12:44.667Z,9.90
2023-04-27T07:15:13.519Z,9.94
2023-04-27T07:17:41.941Z,9.99
2023-04-27T07:20:10.096Z,10.03
2023-04-27T07:22:38.027Z,10.03
2023-04-27T07:25:06.858Z,9.92
2023-04-27T07:27:35.947Z,9.82
2023-04-27T07:30:05.603Z,9.70
2023-04-27T07:32:33.614Z,9.52
2023-04-27T07:35:01.865Z,9.36
2023-04-27T07:37:29.714Z,9.23
2023-04-27T07:39:59.936Z,9.14
2023-04-27T07:42:28.337Z,9.09
2023-04-27T07:44:57.380Z,9.04
2023-04-27T07:47:25.216Z,8.96
2023-04-27T07:49:53.176Z,8.89
2023-04-27T07:52:20.994Z,8.79
2023-04-27T07:54:49.497Z,8.70
2023-04-27T07:57:17.292Z,8.65
2023-04-27T07:59:46.648Z,8.61
2023-04-27T08:02:19.746Z,8.56
2023-04-27T08:04:48.882Z,8.51
2023-04-27T08:07:18.926Z,8.45
2023-04-27T08:09:47.345Z,8.46
2023-04-27T08:12:15.098Z,8.53
2023-04-27T08:14:42.865Z,8.66
2023-04-27T08:17:11.455Z,8.84
2023-04-27T08:19:41.165Z,9.10
2023-04-27T08:22:09.066Z,9.34
2023-04-27T08:24:37.601Z,9.52
2023-04-27T08:27:08.943Z,9.65
2023-04-27T08:29:37.062Z,9.76
2023-04-27T08:32:05.380Z,9.89
2023-04-27T08:34:33.698Z,9.99
2023-04-27T08:37:02.469Z,10.06
2023-04-27T08:39:30.487Z,10.16
2023-04-27T08:41:58.356Z,10.29
2023-04-27T08:44:26.353Z,10.39
2023-04-27T08:46:54.236Z,10.46
2023-04-27T08:49:22.721Z,10.54
2023-04-27T08:51:50.468Z,10.63
2023-04-27T08:54:19.579Z,10.71
2023-04-27T08:56:47.334Z,10.77
2023-04-27T08:59:16.548Z,10.79
2023-04-27T09:01:49.675Z,10.82
2023-04-27T09:04:18.710Z,10.82
2023-04-27T09:06:46.644Z,10.85
2023-04-27T09:09:25.568Z,10.88
2023-04-27T09:11:53.391Z,10.90
2023-04-27T09:14:23.646Z,10.85
2023-04-27T09:16:59.780Z,10.74
2023-04-27T09:19:29.356Z,10.57
2023-04-27T09:22:05.126Z,10.38
2023-04-27T09:24:33.038Z,10.23
2023-04-27T09:27:01.874Z,10.13
2023-04-27T09:29:38.115Z,10.11
2023-04-27T09:32:20.689Z,10.07
2023-04-27T09:34:48.643Z,10.06
2023-04-27T09:37:16.627Z,10.06
2023-04-27T09:39:45.894Z,10.08
2023-04-27T09:42:13.754Z,10.12
2023-04-27T09:44:41.574Z,10.20
2023-04-27T09:47:10.804Z,10.28
2023-04-27T09:49:39.003Z,10.41
2023-04-27T09:52:06.748Z,10.57
2023-04-27T09:54:36.164Z,10.74
2023-04-27T09:57:17.451Z,10.91
2023-04-27T10:00:29.325Z,11.11
2023-04-27T10:03:12.233Z,11.30
2023-04-27T10:05:46.356Z,11.43
2023-04-27T10:08:15.254Z,11.53
2023-04-27T10:10:48.126Z,11.61
2023-04-27T10:13:27.156Z,11.64
2023-04-27T10:15:54.967Z,11.61
2023-04-27T10:18:28.038Z,11.62
2023-04-27T10:20:55.974Z,11.61
2023-04-27T10:23:27.050Z,11.59
2023-04-27T10:25:55.249Z,11.55
2023-04-27T10:28:23.243Z,11.52
2023-04-27T10:30:52.048Z,11.47
2023-04-27T10:33:22.806Z,11.44
2023-04-27T10:35:56.946Z,11.48
2023-04-27T10:38:30.811Z,11.57
2023-04-27T10:41:05.114Z,11.73
2023-04-27T10:43:35.925Z,11.89
2023-04-27T10:46:12.029Z,12.08
2023-04-27T10:48:41.221Z,12.22
2023-04-27T10:51:09.211Z,12.28
2023-04-27T10:53:37.768Z,12.34
2023-04-27T10:56:07.179Z,12.42
2023-04-27T10:58:48.313Z,12.43
2023-04-27T11:01:27.506Z,12.52
2023-04-27T11:04:00.164Z,12.65
2023-04-27T11:06:30.420Z,12.75
2023-04-27T11:08:58.304Z,12.82
2023-04-27T11:11:26.549Z,12.88
2023-04-27T11:13:55.998Z,12.95
2023-04-27T11:16:24.292Z,13.03
2023-04-27T11:18:52.652Z,13.10
2023-04-27T11:21:21.671Z,13.15
2023-04-27T11:23:49.490Z,13.20
2023-04-27T11:26:19.844Z,13.21
2023-04-27T11:28:57.997Z,13.12
2023-04-27T11:31:27.420Z,13.04
2023-04-27T11:33:56.083Z,12.99
2023-04-27T11:36:24.537Z,12.95
2023-04-27T11:38:58.400Z,12.93
2023-04-27T11:41:37.404Z,12.80
2023-04-27T11:44:08.362Z,12.65
2023-04-27T11:46:38.260Z,12.52
2023-04-27T11:49:09.133Z,12.41
2023-04-27T11:51:37.757Z,12.30
2023-04-27T11:54:07.592Z,12.16
2023-04-27T11:56:37.971Z,11.98
2023-04-27T11:59:06.923Z,11.85
2023-04-27T12:01:37.994Z,11.72
2023-04-27T12:04:06.442Z,11.61
2023-04-27T12:06:34.840Z,11.55
2023-04-27T12:09:03.951Z,11.56
2023-04-27T12:11:31.812Z,11.61
2023-04-27T12:14:00.138Z,11.67
2023-04-27T12:16:28.134Z,11.77
2023-04-27T12:18:56.002Z,11.85
2023-04-27T12:21:24.401Z,11.97
2023-04-27T12:23:52.904Z,12.05
2023-04-27T12:26:21.651Z,12.11
2023-04-27T12:28:50.021Z,12.15
2023-04-27T12:31:23.609Z,12.11
2023-04-27T12:33:52.673Z,12.04
2023-04-27T12:36:21.215Z,11.93
2023-04-27T12:38:49.040Z,11.81
2023-04-27T12:41:17.234Z,11.71
2023-04-27T12:43:46.045Z,11.63
2023-04-27T12:46:14.130Z,11.55
2023-04-27T12:48:41.986Z,11.46
2023-04-27T12:51:11.168Z,11.32
2023-04-27T12:53:39.000Z,11.20
2023-04-27T12:56:07.325Z,11.12
2023-04-27T12:58:35.146Z,11.08
2023-04-27T13:01:02.956Z,11.09
2023-04-27T13:03:31.295Z,11.13
2023-04-27T13:05:59.816Z,11.18
2023-04-27T13:08:27.707Z,11.23
2023-04-27T13:10:55.983Z,11.32
2023-04-27T13:13:23.749Z,11.41
2023-04-27T13:15:51.608Z,11.52
2023-04-27T13:18:19.621Z,11.61
2023-04-27T13:20:48.948Z,11.70
2023-04-27T13:23:17.310Z,11.78
2023-04-27T13:25:45.621Z,11.88
2023-04-27T13:28:13.465Z,11.96
2023-04-27T13:30:41.681Z,12.06
2023-04-27T13:33:21.777Z,12.18
2023-04-27T13:35:52.096Z,12.29
2023-04-27T13:38:20.439Z,12.35
2023-04-27T13:40:48.269Z,12.44
2023-04-27T13:43:16.221Z,12.53
2023-04-27T13:45:45.434Z,12.57
2023-04-27T13:48:14.017Z,12.60
2023-04-27T13:50:41.892Z,12.65
2023-04-27T13:53:10.276Z,12.70
2023-04-27T13:55:38.775Z,12.68
2023-04-27T13:58:06.864Z,12.66
2023-04-27T14:00:35.284Z,12.70
2023-04-27T14:03:04.918Z,12.72
2023-04-27T14:05:33.061Z,12.69
2023-04-27T14:08:01.403Z,12.69
2023-04-27T14:10:30.263Z,12.71
2023-04-27T14:12:58.584Z,12.74
2023-04-27T14:15:26.366Z,12.76
2023-04-27T14:17:54.144Z,12.74
2023-04-27T14:20:22.737Z,12.66
2023-04-27T14:22:50.573Z,12.53
2023-04-27T14:25:19.092Z,12.38
2023-04-27T14:27:46.846Z,12.25
2023-04-27T14:30:15.541Z,12.11
2023-04-27T14:32:43.391Z,11.98
2023-04-27T14:35:11.336Z,11.84
2023-04-27T14:37:39.495Z,11.72
2023-04-27T14:40:08.670Z,11.62
2023-04-27T14:42:36.468Z,11.52
2023-04-27T14:45:04.624Z,11.44
2023-04-27T14:47:32.724Z,11.34
2023-04-27T14:50:01.278Z,11.27
2023-04-27T14:52:29.791Z,11.24
2023-04-27T14:54:59.367Z,11.25
2023-04-27T14:57:27.242Z,11.23
2023-04-27T14:59:55.091Z,11.23
2023-04-27T15:02:23.097Z,11.24
2023-04-27T15:04:51.274Z,11.25
2023-04-27T15:07:21.489Z,11.27
2023-04-27T15:09:51.510Z,11.26
2023-04-27T15:12:19.321Z,11.25
2023-04-27T15:14:48.470Z,11.24
2023-04-27T15:17:16.271Z,11.23
2023-04-27T15:19:44.090Z,11.19
2023-04-27T15:22:14.731Z,11.16
2023-04-27T15:24:43.057Z,11.13
2023-04-27T15:27:10.842Z,11.13
2023-04-27T15:29:38.665Z,11.14
2023-04-27T15:32:06.686Z,11.16
2023-04-27T15:34:34.469Z,11.19
2023-04-27T15:37:03.749Z,11.26
2023-04-27T15:39:32.234Z,11.32
2023-04-27T15:42:01.445Z,11.36
2023-04-27T15:44:29.230Z,11.37
2023-04-27T15:46:57.179Z,11.32
2023-04-27T15:49:25.132Z,11.26
2023-04-27T15:51:55.279Z,11.18
2023-04-27T15:54:23.627Z,11.10
2023-04-27T15:56:51.938Z,11.02
2023-04-27T15:59:19.782Z,10.92
2023-04-27T16:01:47.641Z,10.84
2023-04-27T16:04:15.992Z,10.79
2023-04-27T16:06:44.570Z,10.71
2023-04-27T16:09:13.296Z,10.63
2023-04-27T16:11:42.983Z,10.55
2023-04-27T16:14:10.921Z,10.46
2023-04-27T16:16:38.962Z,10.39
2023-04-27T16:19:08.861Z,10.34
2023-04-27T16:21:37.128Z,10.30
2023-04-27T16:24:05.768Z,10.24
2023-04-27T16:26:33.766Z,10.20
2023-04-27T16:29:01.521Z,10.17
2023-04-27T16:31:29.392Z,10.15
2023-04-27T16:33:57.213Z,10.14
2023-04-27T16:36:25.394Z,10.15
2023-04-27T16:38:53.721Z,10.17
2023-04-27T16:41:22.181Z,10.20
2023-04-27T16:43:51.133Z,10.21
2023-04-27T16:46:18.980Z,10.21
2023-04-27T16:48:46.960Z,10.19
2023-04-27T16:51:15.343Z,10.15
2023-04-27T16:53:43.799Z,10.12
2023-04-27T16:56:13.632Z,10.09
2023-04-27T16:58:41.467Z,10.04
2023-04-27T17:01:09.312Z,10.00
2023-04-27T17:03:37.298Z,9.96
2023-04-27T17:06:05.590Z,9.94
2023-04-27T17:08:34.014Z,9.91
2023-04-27T17:11:02.108Z,9.90
2023-04-27T17:13:31.762Z,9.87
2023-04-27T17:15:59.613Z,9.85
2023-04-27T17:18:27.524Z,9.82
2023-04-27T17:20:55.969Z,9.80
2023-04-27T17:23:24.293Z,9.77
2023-04-27T17:25:52.068Z,9.75
2023-04-27T17:28:19.895Z,9.73
2023-04-27T17:30:47.774Z,9.71
2023-04-27T17:33:16.792Z,9.67
2023-04-27T17:35:47.167Z,9.65
2023-04-27T17:38:16.260Z,9.63
2023-04-27T17:40:44.191Z,9.60
2023-04-27T17:43:12.045Z,9.57
2023-04-27T17:45:39.905Z,9.53
2023-04-27T17:48:07.788Z,9.50
2023-04-27T17:50:37.499Z,9.48
2023-04-27T17:53:05.942Z,9.44
2023-04-27T17:55:33.934Z,9.40
2023-04-27T17:58:04.093Z,9.38
2023-04-27T18:00:32.297Z,9.36
2023-04-27T18:03:00.447Z,9.33
2023-04-27T18:05:29.440Z,9.31
2023-04-27T18:07:57.226Z,9.29
2023-04-27T18:10:25.009Z,9.29
2023-04-27T18:12:52.746Z,9.27
2023-04-27T18:15:20.611Z,9.23
2023-04-27T18:17:49.011Z,9.17
2023-04-27T18:20:17.691Z,9.11
2023-04-27T18:22:45.554Z,9.05
2023-04-27T18:25:13.432Z,8.98
2023-04-27T18:27:43.781Z,8.91
2023-04-27T18:30:11.796Z,8.83
2023-04-27T18:32:42.889Z,8.74
2023-04-27T18:35:11.355Z,8.66
2023-04-27T18:37:39.077Z,8.55
2023-04-27T18:40:07.801Z,8.44
2023-04-27T18:42:35.606Z,8.35
2023-04-27T18:45:04.122Z,8.25
2023-04-27T18:47:32.536Z,8.15
2023-04-27T18:50:00.404Z,8.08
2023-04-27T18:52:28.169Z,8.02
2023-04-27T18:54:56.002Z,7.97
2023-04-27T18:57:26.587Z,7.92
2023-04-27T18:59:54.978Z,7.89
2023-04-27T19:02:25.352Z,7.87
2023-04-27T19:05:07.579Z,7.86
2023-04-27T19:07:40.779Z,7.86
2023-04-27T19:10:10.245Z,7.87
2023-04-27T19:12:38.429Z,7.87
2023-04-27T19:15:07.104Z,7.87
2023-04-27T19:17:35.304Z,7.86
2023-04-27T19:20:03.899Z,7.84
2023-04-27T19:22:34.515Z,7.82
2023-04-27T19:25:04.376Z,7.80
2023-04-27T19:27:32.347Z,7.78
2023-04-27T19:30:01.115Z,7.74
2023-04-27T19:32:28.964Z,7.71
2023-04-27T19:34:58.180Z,7.70
2023-04-27T19:37:28.735Z,7.67
2023-04-27T19:39:57.050Z,7.63
2023-04-27T19:42:25.181Z,7.60
2023-04-27T19:44:52.989Z,7.55
2023-04-27T19:47:21.238Z,7.51
2023-04-27T19:49:49.556Z,7.45
2023-04-27T19:52:17.812Z,7.39
2023-04-27T19:54:51.101Z,7.33
2023-04-27T19:57:19.105Z,7.25
2023-04-27T19:59:47.048Z,7.17
2023-04-27T20:02:16.019Z,7.11
2023-04-27T20:04:44.986Z,7.04
2023-04-27T20:07:13.065Z,6.99
2023-04-27T20:09:40.970Z,6.93
2023-04-27T20:12:19.453Z,6.87
2023-04-27T20:14:57.280Z,6.80
2023-04-27T20:17:26.247Z,6.75
2023-04-27T20:19:57.196Z,6.68
2023-04-27T20:22:24.963Z,6.62
2023-04-27T20:24:53.340Z,6.56
2023-04-27T20:27:21.612Z,6.51
2023-04-27T20:29:50.207Z,6.45
2023-04-27T20:32:18.056Z,6.40
2023-04-27T20:34:45.995Z,6.31
2023-04-27T20:37:13.786Z,6.23
2023-04-27T20:39:42.101Z,6.16
2023-04-27T20:42:12.728Z,6.08
2023-04-27T20:44:40.491Z,6.01
2023-04-27T20:47:08.281Z,5.93
2023-04-27T20:49:36.016Z,5.87
2023-04-27T20:52:03.957Z,5.80
2023-04-27T20:54:33.175Z,5.74
2023-04-27T20:57:02.313Z,5.72
2023-04-27T20:59:30.124Z,5.71
2023-04-27T21:01:57.868Z,5.69
2023-04-27T21:04:25.794Z,5.66
2023-04-27T21:06:53.751Z,5.64
2023-04-27T21:09:22.113Z,5.60
2023-04-27T21:11:50.654Z,5.59
2023-04-27T21:14:18.445Z,5.57
2023-04-27T21:16:46.270Z,5.56
2023-04-27T21:19:16.227Z,5.53
2023-04-27T21:21:44.093Z,5.52
2023-04-27T21:24:12.425Z,5.50
2023-04-27T21:26:42.304Z,5.45
2023-04-27T21:29:10.534Z,5.40
2023-04-27T21:31:38.410Z,5.35
2023-04-27T21:34:06.266Z,5.31
2023-04-27T21:36:34.549Z,5.30
2023-04-27T21:39:03.001Z,5.24
2023-04-27T21:41:30.761Z,5.15
2023-04-27T21:43:58.539Z,5.07
2023-04-27T21:46:26.414Z,5.02
2023-04-27T21:48:54.201Z,5.00
2023-04-27T21:51:22.470Z,4.98
2023-04-27T21:53:50.829Z,4.98
2023-04-27T21:56:18.607Z,4.99
2023-04-27T21:58:46.492Z,4.98
2023-04-27T22:01:14.644Z,4.96
2023-04-27T22:03:42.560Z,4.93
2023-04-27T22:06:10.781Z,4.89
2023-04-27T22:08:38.565Z,4.87
2023-04-27T22:11:06.328Z,4.87
2023-04-27T22:13:34.622Z,4.88
2023-04-27T22:16:02.468Z,4.87
2023-04-27T22:18:30.402Z,4.86
2023-04-27T22:20:58.374Z,4.86
2023-04-27T22:23:26.673Z,4.87
2023-04-27T22:25:54.423Z,4.88
2023-04-27T22:28:22.281Z,4.86
2023-04-27T22:30:50.093Z,4.83
2023-04-27T22:33:18.468Z,4.84
2023-04-27T22:35:46.980Z,4.85
2023-04-27T22:38:14.855Z,4.86
2023-04-27T22:40:42.708Z,4.86
2023-04-27T22:43:10.422Z,4.87
2023-04-27T22:45:39.052Z,4.88
2023-04-27T22:48:07.254Z,4.89
2023-04-27T22:50:35.264Z,4.93
2023-04-27T22:53:03.874Z,4.97
2023-04-27T22:55:31.592Z,4.99
2023-04-27T22:57:59.362Z,5.03
2023-04-27T23:00:27.765Z,5.07
2023-04-27T23:02:56.313Z,5.12
2023-04-27T23:05:24.186Z,5.14
2023-04-27T23:07:52.043Z,5.13
2023-04-27T23:10:19.894Z,5.15
2023-04-27T23:12:47.830Z,5.14
2023-04-27T23:15:16.579Z,5.08
2023-04-27T23:17:44.371Z,5.05
2023-04-27T23:20:24.634Z,5.04
2023-04-27T23:22:56.575Z,5.04
2023-04-27T23:25:24.753Z,5.04
2023-04-27T23:27:53.316Z,4.99
2023-04-27T23:30:22.257Z,4.96
2023-04-27T23:32:50.301Z,4.94
2023-04-27T23:35:18.337Z,4.92
2023-04-27T23:37:46.151Z,4.90
2023-04-27T23:40:14.577Z,4.86
2023-04-27T23:42:43.098Z,4.79
2023-04-27T23:45:11.473Z,4.73
2023-04-27T23:47:39.812Z,4.69
2023-04-27T23:50:08.281Z,4.65
2023-04-27T23:52:36.134Z,4.60
2023-04-27T23:55:04.180Z,4.52
2023-04-27T23:57:32.378Z,4.46
